PWSweather.com
Personal Weather Stations
Station Observations
CALONGE
CalongeES 17251

CalongeES 17251

Lat: 41.85972222, Lon: 3.077777778

Elevation: 16

Station Type: Oregon WMR928N

Latest ConditionsUpdated 5:00:02 PM GMT+01:01 Monday, Oct 15, 2018
Currently Today's Max Today's Min Today's Average
Temperature 67.3°F19.6°C 71.8°F22.1°C 65.7°F18.7°C 67.8°F19.9°C
Dew Point 58.7°F14.8°C 66.7°F19.3°C 56.7°F13.7°C 63.0°F17.2°C
Winds 6.4 mph E10.3 kmh E 18.5 mph -29.8 kmh - - 6.8 mph 10.9 kmh
Wind Gusts 10.5 mph16.9 kmh 31.1 mph50.1 kmh - -
Humidity 74% 98% 59% 86%
Pressure 29.74 in1007.1 mb 29.74 in1007.1 mb 29.59 in1002.0 mb -
Precipitation - 1.07 in27.2 mm - -
Hour Temp Dew Point Humidity Winds Wind Gusts Pressure Precip Precip Rate Daily Precip Total
05:00 PM 67.3°F19.6°C 58.7°F14.8°C 74% 6.4 mph E10.3 kmh E 10.5 mph16.9 kmh 29.74 in1007.1 mb 0.00 in0.0 mm 0.00 in0.0 mm 1.07 in27.2 mm
04:45 PM 67.5°F19.7°C 58.5°F14.7°C 73% 8.8 mph ENE14.2 kmh ENE 10.8 mph17.4 kmh 29.71 in1006.1 mb 0.00 in0.0 mm 0.00 in0.0 mm 1.07 in27.2 mm
04:30 PM 67.8°F19.9°C 58.5°F14.7°C 72% 9.4 mph NE15.1 kmh NE 13.8 mph22.2 kmh 29.71 in1006.1 mb 0.00 in0.0 mm 0.00 in0.0 mm 1.07 in27.2 mm
04:15 PM 67.8°F19.9°C 58.1°F14.5°C 71% 10.0 mph NE16.1 kmh NE 13.8 mph22.2 kmh 29.71 in1006.1 mb 0.00 in0.0 mm 0.00 in0.0 mm 1.07 in27.2 mm
04:00 PM 68.0°F20.0°C 58.2°F14.6°C 71% 10.8 mph ENE17.4 kmh ENE 13.8 mph22.2 kmh 29.71 in1006.1 mb 0.00 in0.0 mm 0.00 in0.0 mm 1.07 in27.2 mm
03:45 PM 68.2°F20.1°C 58.4°F14.7°C 71% 7.6 mph ENE12.2 kmh ENE 14.4 mph23.2 kmh 29.71 in1006.1 mb 0.00 in0.0 mm 0.00 in0.0 mm 1.07 in27.2 mm
03:30 PM 68.2°F20.1°C 58.4°F14.7°C 71% 5.3 mph E8.5 kmh E 11.4 mph18.3 kmh 29.71 in1006.1 mb 0.00 in0.0 mm 0.00 in0.0 mm 1.07 in27.2 mm
03:15 PM 68.4°F20.2°C 58.6°F14.8°C 71% 5.9 mph E9.5 kmh E 11.4 mph18.3 kmh 29.71 in1006.1 mb 0.00 in0.0 mm 0.00 in0.0 mm 1.07 in27.2 mm
03:00 PM 69.3°F20.7°C 58.2°F14.6°C 68% 9.4 mph ENE15.1 kmh ENE 13.2 mph21.2 kmh 29.71 in1006.1 mb 0.00 in0.0 mm 0.00 in0.0 mm 1.07 in27.2 mm
02:45 PM 69.6°F20.9°C 58.2°F14.6°C 67% 8.8 mph ENE14.2 kmh ENE 17.9 mph28.8 kmh 29.68 in1005.1 mb 0.00 in0.0 mm 0.00 in0.0 mm 1.07 in27.2 mm
02:30 PM 70.5°F21.4°C 57.8°F14.3°C 64% 12.6 mph NE20.3 kmh NE 17.3 mph27.8 kmh 29.68 in1005.1 mb 0.00 in0.0 mm 0.00 in0.0 mm 1.07 in27.2 mm
02:15 PM 69.1°F20.6°C 58.1°F14.5°C 68% 10.0 mph ENE16.1 kmh ENE 15.5 mph24.9 kmh 29.68 in1005.1 mb 0.00 in0.0 mm 0.00 in0.0 mm 1.07 in27.2 mm
02:00 PM 69.1°F20.6°C 58.1°F14.5°C 68% 8.8 mph NE14.2 kmh NE 17.3 mph27.8 kmh 29.68 in1005.1 mb 0.00 in0.0 mm 0.00 in0.0 mm 1.07 in27.2 mm
01:45 PM 70.3°F21.3°C 58.9°F14.9°C 67% 8.2 mph ENE13.2 kmh ENE 13.8 mph22.2 kmh 29.71 in1006.1 mb 0.00 in0.0 mm 0.00 in0.0 mm 1.07 in27.2 mm
01:30 PM 70.3°F21.3°C 58.9°F14.9°C 67% 9.4 mph ENE15.1 kmh ENE 14.4 mph23.2 kmh 29.68 in1005.1 mb 0.00 in0.0 mm 0.00 in0.0 mm 1.07 in27.2 mm
01:15 PM 70.3°F21.3°C 58.4°F14.7°C 66% 4.7 mph E7.6 kmh E 11.4 mph18.3 kmh 29.68 in1005.1 mb 0.00 in0.0 mm 0.00 in0.0 mm 1.07 in27.2 mm
01:00 PM 70.7°F21.5°C 57.9°F14.4°C 64% 7.6 mph E12.2 kmh E 14.4 mph23.2 kmh 29.71 in1006.1 mb 0.00 in0.0 mm 0.00 in0.0 mm 1.07 in27.2 mm
12:45 PM 71.8°F22.1°C 56.7°F13.7°C 59% 8.2 mph E13.2 kmh E 13.8 mph22.2 kmh 29.68 in1005.1 mb 0.00 in0.0 mm 0.00 in0.0 mm 1.07 in27.2 mm
12:30 PM 71.8°F22.1°C 56.7°F13.7°C 59% 6.4 mph ESE10.3 kmh ESE 13.2 mph21.2 kmh 29.68 in1005.1 mb 0.00 in0.0 mm 0.00 in0.0 mm 1.07 in27.2 mm
12:15 PM 71.6°F22.0°C 57.0°F13.9°C 60% 10.8 mph E17.4 kmh E 14.4 mph23.2 kmh 29.68 in1005.1 mb 0.00 in0.0 mm 0.00 in0.0 mm 1.07 in27.2 mm
12:00 PM 70.5°F21.4°C 56.9°F13.8°C 62% 5.3 mph ESE8.5 kmh ESE 10.8 mph17.4 kmh 29.68 in1005.1 mb 0.00 in0.0 mm 0.00 in0.0 mm 1.07 in27.2 mm
11:45 AM 70.5°F21.4°C 56.9°F13.8°C 62% 5.3 mph ESE8.5 kmh ESE 10.0 mph16.1 kmh 29.68 in1005.1 mb 0.00 in0.0 mm 0.00 in0.0 mm 1.07 in27.2 mm
11:30 AM 68.5°F20.3°C 61.4°F16.3°C 78% 4.1 mph SE6.6 kmh SE 9.4 mph15.1 kmh 29.68 in1005.1 mb 0.00 in0.0 mm 0.00 in0.0 mm 1.07 in27.2 mm
11:15 AM 68.5°F20.3°C 61.4°F16.3°C 78% 5.3 mph ESE8.5 kmh ESE 10.0 mph16.1 kmh 29.68 in1005.1 mb 0.00 in0.0 mm 0.00 in0.0 mm 1.07 in27.2 mm
11:00 AM 68.5°F20.3°C 61.4°F16.3°C 78% 4.7 mph ESE7.6 kmh ESE 8.2 mph13.2 kmh 29.68 in1005.1 mb 0.00 in0.0 mm 0.00 in0.0 mm 1.07 in27.2 mm
10:45 AM 68.5°F20.3°C 61.4°F16.3°C 78% 4.7 mph SE7.6 kmh SE 9.4 mph15.1 kmh 29.68 in1005.1 mb 0.00 in0.0 mm 0.00 in0.0 mm 1.07 in27.2 mm
10:30 AM 68.2°F20.1°C 63.8°F17.7°C 86% Calm Calm 5.9 mph9.5 kmh 29.68 in1005.1 mb 0.00 in0.0 mm 0.00 in0.0 mm 1.07 in27.2 mm
10:15 AM 67.8°F19.9°C 63.8°F17.7°C 87% Calm Calm 5.3 mph8.5 kmh 29.68 in1005.1 mb 0.00 in0.0 mm 0.00 in0.0 mm 1.07 in27.2 mm
10:00 AM 67.5°F19.7°C 64.1°F17.8°C 89% 2.9 mph ESE4.7 kmh ESE 6.4 mph10.3 kmh 29.68 in1005.1 mb 0.00 in0.0 mm 0.00 in0.0 mm 1.07 in27.2 mm
09:45 AM 67.3°F19.6°C 64.6°F18.1°C 91% Calm Calm -- 29.65 in1004.1 mb 0.00 in0.0 mm 0.00 in0.0 mm 1.07 in27.2 mm
09:30 AM 67.1°F19.5°C 64.7°F18.2°C 92% Calm Calm -- 29.65 in1004.1 mb 0.00 in0.0 mm 0.00 in0.0 mm 1.07 in27.2 mm
09:15 AM 66.9°F19.4°C 65.4°F18.6°C 95% Calm Calm -- 29.65 in1004.1 mb 0.00 in0.0 mm 0.00 in0.0 mm 1.07 in27.2 mm
09:00 AM 66.6°F19.2°C 65.4°F18.6°C 96% Calm Calm -- 29.65 in1004.1 mb 0.00 in0.0 mm 0.00 in0.0 mm 1.07 in27.2 mm
08:45 AM 66.2°F19.0°C 65.6°F18.7°C 98% Calm Calm -- 29.65 in1004.1 mb 0.00 in0.0 mm 0.00 in0.0 mm 1.07 in27.2 mm
08:30 AM 66.2°F19.0°C 65.6°F18.7°C 98% Calm Calm -- 29.65 in1004.1 mb 0.00 in0.0 mm 0.00 in0.0 mm 1.07 in27.2 mm
08:15 AM 65.7°F18.7°C 65.1°F18.4°C 98% Calm Calm 4.7 mph7.6 kmh 29.65 in1004.1 mb 0.00 in0.0 mm 0.00 in0.0 mm 1.07 in27.2 mm
08:00 AM 65.7°F18.7°C 65.1°F18.4°C 98% Calm Calm 8.2 mph13.2 kmh 29.62 in1003.0 mb 0.00 in0.0 mm 0.00 in0.0 mm 1.07 in27.2 mm
07:45 AM 65.8°F18.8°C 65.3°F18.5°C 98% 2.9 mph SW4.7 kmh SW 5.3 mph8.5 kmh 29.62 in1003.0 mb 0.00 in0.0 mm 0.00 in0.0 mm 1.07 in27.2 mm
07:30 AM 66.0°F18.9°C 65.4°F18.6°C 98% Calm Calm 2.9 mph4.7 kmh 29.62 in1003.0 mb 0.00 in0.0 mm 0.00 in0.0 mm 1.07 in27.2 mm
07:15 AM 66.0°F18.9°C 65.4°F18.6°C 98% Calm Calm -- 29.62 in1003.0 mb 0.00 in0.0 mm 0.00 in0.0 mm 1.07 in27.2 mm
07:00 AM 66.0°F18.9°C 65.4°F18.6°C 98% Calm Calm 7.6 mph12.2 kmh 29.62 in1003.0 mb 0.00 in0.0 mm 0.00 in0.0 mm 1.07 in27.2 mm
06:45 AM 66.2°F19.0°C 65.6°F18.7°C 98% Calm Calm -- 29.62 in1003.0 mb 0.00 in0.0 mm 0.00 in0.0 mm 1.07 in27.2 mm
06:30 AM 66.2°F19.0°C 65.6°F18.7°C 98% Calm Calm -- 29.59 in1002.0 mb 0.00 in0.0 mm 0.00 in0.0 mm 1.07 in27.2 mm
06:15 AM 66.4°F19.1°C 65.8°F18.8°C 98% Calm Calm -- 29.59 in1002.0 mb 0.00 in0.0 mm 0.00 in0.0 mm 1.07 in27.2 mm
06:00 AM 66.4°F19.1°C 65.8°F18.8°C 98% Calm Calm -- 29.59 in1002.0 mb 0.00 in0.0 mm 0.00 in0.0 mm 1.07 in27.2 mm
05:45 AM 66.4°F19.1°C 65.8°F18.8°C 98% Calm Calm 6.4 mph10.3 kmh 29.62 in1003.0 mb 0.00 in0.0 mm 0.00 in0.0 mm 1.07 in27.2 mm
05:30 AM 66.6°F19.2°C 66.0°F18.9°C 98% Calm Calm 10.8 mph17.4 kmh 29.62 in1003.0 mb 0.00 in0.0 mm 0.00 in0.0 mm 1.07 in27.2 mm
05:15 AM 66.2°F19.0°C 65.6°F18.7°C 98% 7.6 mph SE12.2 kmh SE 10.8 mph17.4 kmh 29.59 in1002.0 mb 0.00 in0.0 mm 0.00 in0.0 mm 1.07 in27.2 mm
05:00 AM 66.2°F19.0°C 65.6°F18.7°C 98% 4.7 mph SE7.6 kmh SE 6.4 mph10.3 kmh 29.62 in1003.0 mb 0.00 in0.0 mm 0.00 in0.0 mm 1.07 in27.2 mm
04:45 AM 66.0°F18.9°C 65.4°F18.6°C 98% 2.9 mph S4.7 kmh S 13.2 mph21.2 kmh 29.62 in1003.0 mb 0.05 in1.3 mm 0.00 in0.0 mm 1.07 in27.2 mm
04:30 AM 66.2°F19.0°C 65.6°F18.7°C 98% 10.5 mph SSE16.9 kmh SSE 17.3 mph27.8 kmh 29.62 in1003.0 mb 0.13 in3.3 mm 0.00 in0.0 mm 1.07 in27.2 mm
04:15 AM 66.2°F19.0°C 65.6°F18.7°C 98% 12.0 mph SE19.3 kmh SE 19.6 mph31.5 kmh 29.62 in1003.0 mb 0.29 in7.4 mm 0.00 in0.0 mm 1.07 in27.2 mm
04:00 AM 66.4°F19.1°C 65.8°F18.8°C 98% 13.8 mph SSE22.2 kmh SSE 23.4 mph37.7 kmh 29.62 in1003.0 mb 0.30 in7.6 mm 0.03 in0.8 mm 1.07 in27.2 mm
03:45 AM 66.9°F19.4°C 66.3°F19.1°C 98% 13.2 mph ESE21.2 kmh ESE 28.7 mph46.2 kmh 29.62 in1003.0 mb 0.28 in7.1 mm 0.04 in1.0 mm 1.01 in25.7 mm
03:30 AM 67.1°F19.5°C 66.5°F19.2°C 98% 6.4 mph SE10.3 kmh SE 20.2 mph32.5 kmh 29.62 in1003.0 mb 0.27 in6.9 mm 0.56 in14.2 mm 0.94 in23.9 mm
03:15 AM 66.7°F19.3°C 66.2°F19.0°C 98% 13.2 mph ESE21.2 kmh ESE 25.8 mph41.5 kmh 29.62 in1003.0 mb 0.13 in3.3 mm 0.00 in0.0 mm 0.78 in19.8 mm
03:00 AM 67.1°F19.5°C 66.5°F19.2°C 98% 18.5 mph ESE29.8 kmh ESE 31.1 mph50.1 kmh 29.65 in1004.1 mb 0.15 in3.8 mm 0.00 in0.0 mm 0.77 in19.6 mm
02:45 AM 67.1°F19.5°C 66.5°F19.2°C 98% 16.1 mph ESE25.9 kmh ESE 24.0 mph38.6 kmh 29.65 in1004.1 mb 0.37 in9.4 mm 0.00 in0.0 mm 0.72 in18.3 mm
02:30 AM 67.1°F19.5°C 66.5°F19.2°C 98% 13.2 mph SE21.2 kmh SE 23.4 mph37.7 kmh 29.68 in1005.1 mb 0.55 in14.0 mm 0.00 in0.0 mm 0.67 in17.0 mm
02:15 AM 67.1°F19.5°C 66.5°F19.2°C 98% 16.1 mph SE25.9 kmh SE 22.3 mph35.9 kmh 29.68 in1005.1 mb 0.61 in15.5 mm 0.00 in0.0 mm 0.65 in16.5 mm
02:00 AM 67.1°F19.5°C 66.5°F19.2°C 98% 17.9 mph SE28.8 kmh SE 25.8 mph41.5 kmh 29.68 in1005.1 mb 0.62 in15.7 mm 0.37 in9.4 mm 0.62 in15.7 mm
01:45 AM 67.3°F19.6°C 66.7°F19.3°C 98% 17.9 mph ESE28.8 kmh ESE 26.4 mph42.5 kmh 29.68 in1005.1 mb 0.34 in8.6 mm 0.92 in23.4 mm 0.33 in8.4 mm
01:30 AM 67.6°F19.8°C 66.5°F19.2°C 96% 13.8 mph ESE22.2 kmh ESE 17.3 mph27.8 kmh 29.65 in1004.1 mb 0.11 in2.8 mm 0.20 in5.1 mm 0.10 in2.5 mm
01:15 AM 68.0°F20.0°C 66.2°F19.0°C 94% 11.4 mph ESE18.3 kmh ESE 19.0 mph30.6 kmh 29.68 in1005.1 mb 0.06 in1.5 mm 0.16 in4.1 mm 0.04 in1.0 mm
01:00 AM 68.0°F20.0°C 66.2°F19.0°C 94% 10.8 mph ESE17.4 kmh ESE 20.2 mph32.5 kmh 29.68 in1005.1 mb 0.02 in0.5 mm 0.00 in0.0 mm 0.02 in0.5 mm
12:45 AM 68.2°F20.1°C 66.1°F18.9°C 93% 12.0 mph ESE19.3 kmh ESE 16.7 mph26.9 kmh 29.68 in1005.1 mb 0.02 in0.5 mm 0.00 in0.0 mm 0.06 in1.5 mm
12:30 AM 68.2°F20.1°C 66.4°F19.1°C 94% 10.5 mph E16.9 kmh E 17.3 mph27.8 kmh 29.71 in1006.1 mb 0.02 in0.5 mm 0.00 in0.0 mm 0.06 in1.5 mm
12:15 AM 68.2°F20.1°C 66.1°F18.9°C 93% 11.4 mph E18.3 kmh E 16.1 mph25.9 kmh 29.71 in1006.1 mb 0.02 in0.5 mm 0.00 in0.0 mm 0.05 in1.3 mm
12:00 AM 68.4°F20.2°C 65.9°F18.8°C 92% 12.0 mph ESE19.3 kmh ESE 17.3 mph27.8 kmh 29.71 in1006.1 mb 0.02 in0.5 mm 0.00 in0.0 mm 0.04 in1.0 mm